sensor_id;sensor_type;location;lat;lon;timestamp;P1;durP1;ratioP1;P2;durP2;ratioP2
74196;SDS011;62555;52.678;4.900;2022-10-17T00:00:50;3.35;;;2.25;;
74196;SDS011;62555;52.678;4.900;2022-10-17T00:03:16;2.75;;;2.15;;
74196;SDS011;62555;52.678;4.900;2022-10-17T00:05:43;3.97;;;2.35;;
74196;SDS011;62555;52.678;4.900;2022-10-17T00:08:11;4.00;;;2.25;;
74196;SDS011;62555;52.678;4.900;2022-10-17T00:10:37;3.63;;;2.47;;
74196;SDS011;62555;52.678;4.900;2022-10-17T00:13:03;2.58;;;2.38;;
74196;SDS011;62555;52.678;4.900;2022-10-17T00:15:29;3.13;;;2.60;;
74196;SDS011;62555;52.678;4.900;2022-10-17T00:17:54;3.78;;;2.20;;
74196;SDS011;62555;52.678;4.900;2022-10-17T00:20:20;3.45;;;2.20;;
74196;SDS011;62555;52.678;4.900;2022-10-17T00:22:45;2.88;;;1.77;;
74196;SDS011;62555;52.678;4.900;2022-10-17T00:25:10;2.88;;;1.88;;
74196;SDS011;62555;52.678;4.900;2022-10-17T00:27:37;3.13;;;2.22;;
74196;SDS011;62555;52.678;4.900;2022-10-17T00:32:29;3.45;;;2.08;;
74196;SDS011;62555;52.678;4.900;2022-10-17T00:34:54;4.60;;;2.33;;
74196;SDS011;62555;52.678;4.900;2022-10-17T00:37:20;4.90;;;2.00;;
74196;SDS011;62555;52.678;4.900;2022-10-17T00:39:45;4.13;;;1.95;;
74196;SDS011;62555;52.678;4.900;2022-10-17T00:42:11;4.22;;;1.90;;
74196;SDS011;62555;52.678;4.900;2022-10-17T00:47:06;2.45;;;2.08;;
74196;SDS011;62555;52.678;4.900;2022-10-17T00:49:34;3.38;;;2.20;;
74196;SDS011;62555;52.678;4.900;2022-10-17T00:52:01;2.03;;;1.70;;
74196;SDS011;62555;52.678;4.900;2022-10-17T00:54:33;4.10;;;1.90;;
74196;SDS011;62555;52.678;4.900;2022-10-17T00:56:59;2.78;;;2.00;;
74196;SDS011;62555;52.678;4.900;2022-10-17T00:59:25;2.30;;;1.90;;
74196;SDS011;62555;52.678;4.900;2022-10-17T01:02:10;2.40;;;1.90;;
74196;SDS011;62555;52.678;4.900;2022-10-17T01:04:41;3.15;;;2.17;;
74196;SDS011;62555;52.678;4.900;2022-10-17T01:07:08;2.53;;;2.28;;
74196;SDS011;62555;52.678;4.900;2022-10-17T01:09:34;2.80;;;1.75;;
74196;SDS011;62555;52.678;4.900;2022-10-17T01:12:06;2.90;;;2.10;;
74196;SDS011;62555;52.678;4.900;2022-10-17T01:17:27;2.28;;;1.80;;
74196;SDS011;62555;52.678;4.900;2022-10-17T01:20:24;3.30;;;1.80;;
74196;SDS011;62555;52.678;4.900;2022-10-17T01:23:23;3.75;;;2.13;;
74196;SDS011;62555;52.678;4.900;2022-10-17T01:25:56;2.20;;;1.60;;
74196;SDS011;62555;52.678;4.900;2022-10-17T01:37:07;2.13;;;1.60;;
74196;SDS011;62555;52.678;4.900;2022-10-17T01:39:43;3.10;;;1.75;;
74196;SDS011;62555;52.678;4.900;2022-10-17T01:42:13;2.25;;;1.80;;
74196;SDS011;62555;52.678;4.900;2022-10-17T01:47:23;2.70;;;2.03;;
74196;SDS011;62555;52.678;4.900;2022-10-17T01:49:51;3.30;;;1.77;;
74196;SDS011;62555;52.678;4.900;2022-10-17T01:52:19;3.15;;;2.00;;
74196;SDS011;62555;52.678;4.900;2022-10-17T01:55:02;3.17;;;2.88;;
74196;SDS011;62555;52.678;4.900;2022-10-17T01:57:40;2.28;;;2.08;;
74196;SDS011;62555;52.678;4.900;2022-10-17T02:00:09;2.63;;;1.98;;
74196;SDS011;62555;52.678;4.900;2022-10-17T02:02:36;2.95;;;1.63;;
74196;SDS011;62555;52.678;4.900;2022-10-17T02:05:02;2.42;;;2.15;;
74196;SDS011;62555;52.678;4.900;2022-10-17T02:07:28;3.00;;;2.22;;
74196;SDS011;62555;52.678;4.900;2022-10-17T02:09:53;2.70;;;2.28;;
74196;SDS011;62555;52.678;4.900;2022-10-17T02:15:14;2.10;;;1.90;;
74196;SDS011;62555;52.678;4.900;2022-10-17T02:18:10;2.22;;;1.80;;
74196;SDS011;62555;52.678;4.900;2022-10-17T02:20:48;5.18;;;2.03;;
74196;SDS011;62555;52.678;4.900;2022-10-17T02:23:22;2.95;;;2.10;;
74196;SDS011;62555;52.678;4.900;2022-10-17T02:28:39;3.08;;;2.35;;
74196;SDS011;62555;52.678;4.900;2022-10-17T02:31:14;2.25;;;1.77;;
74196;SDS011;62555;52.678;4.900;2022-10-17T02:36:15;1.70;;;1.60;;
74196;SDS011;62555;52.678;4.900;2022-10-17T02:38:43;2.83;;;1.90;;
74196;SDS011;62555;52.678;4.900;2022-10-17T02:41:10;2.83;;;1.88;;
74196;SDS011;62555;52.678;4.900;2022-10-17T02:43:38;3.40;;;2.30;;
74196;SDS011;62555;52.678;4.900;2022-10-17T02:46:03;2.95;;;1.52;;
74196;SDS011;62555;52.678;4.900;2022-10-17T02:48:33;2.45;;;2.25;;
74196;SDS011;62555;52.678;4.900;2022-10-17T02:54:04;2.67;;;1.92;;
74196;SDS011;62555;52.678;4.900;2022-10-17T02:56:45;2.88;;;1.88;;
74196;SDS011;62555;52.678;4.900;2022-10-17T02:59:14;2.58;;;2.22;;
74196;SDS011;62555;52.678;4.900;2022-10-17T03:01:41;2.78;;;2.03;;
74196;SDS011;62555;52.678;4.900;2022-10-17T03:04:08;2.42;;;1.90;;
74196;SDS011;62555;52.678;4.900;2022-10-17T03:06:34;3.38;;;1.92;;
74196;SDS011;62555;52.678;4.900;2022-10-17T03:09:00;3.28;;;1.90;;
74196;SDS011;62555;52.678;4.900;2022-10-17T03:11:25;2.20;;;2.00;;
74196;SDS011;62555;52.678;4.900;2022-10-17T03:13:51;2.08;;;1.88;;
74196;SDS011;62555;52.678;4.900;2022-10-17T03:16:16;2.65;;;1.88;;
74196;SDS011;62555;52.678;4.900;2022-10-17T03:18:41;1.60;;;1.50;;
74196;SDS011;62555;52.678;4.900;2022-10-17T03:21:07;2.15;;;1.52;;
74196;SDS011;62555;52.678;4.900;2022-10-17T03:23:32;2.13;;;1.80;;
74196;SDS011;62555;52.678;4.900;2022-10-17T03:25:57;2.65;;;2.10;;
74196;SDS011;62555;52.678;4.900;2022-10-17T03:28:27;3.28;;;1.90;;
74196;SDS011;62555;52.678;4.900;2022-10-17T03:30:53;2.72;;;1.90;;
74196;SDS011;62555;52.678;4.900;2022-10-17T03:33:18;2.60;;;1.90;;
74196;SDS011;62555;52.678;4.900;2022-10-17T03:35:43;2.55;;;2.10;;
74196;SDS011;62555;52.678;4.900;2022-10-17T03:38:09;2.42;;;2.00;;
74196;SDS011;62555;52.678;4.900;2022-10-17T03:40:34;2.50;;;2.00;;
74196;SDS011;62555;52.678;4.900;2022-10-17T03:42:59;3.30;;;2.40;;
74196;SDS011;62555;52.678;4.900;2022-10-17T03:45:25;2.97;;;1.52;;
74196;SDS011;62555;52.678;4.900;2022-10-17T03:47:50;2.65;;;1.90;;
74196;SDS011;62555;52.678;4.900;2022-10-17T03:50:15;2.97;;;2.20;;
74196;SDS011;62555;52.678;4.900;2022-10-17T03:52:41;4.65;;;2.10;;
74196;SDS011;62555;52.678;4.900;2022-10-17T03:55:06;2.35;;;2.15;;
74196;SDS011;62555;52.678;4.900;2022-10-17T03:57:33;2.72;;;1.92;;
74196;SDS011;62555;52.678;4.900;2022-10-17T03:59:59;2.47;;;2.08;;
74196;SDS011;62555;52.678;4.900;2022-10-17T04:02:25;2.67;;;2.10;;
74196;SDS011;62555;52.678;4.900;2022-10-17T04:04:50;2.67;;;2.47;;
74196;SDS011;62555;52.678;4.900;2022-10-17T04:07:15;2.60;;;2.08;;
74196;SDS011;62555;52.678;4.900;2022-10-17T04:09:41;2.83;;;1.98;;
74196;SDS011;62555;52.678;4.900;2022-10-17T04:12:06;3.35;;;1.95;;
74196;SDS011;62555;52.678;4.900;2022-10-17T04:14:31;3.22;;;2.35;;
74196;SDS011;62555;52.678;4.900;2022-10-17T04:16:57;2.65;;;2.20;;
74196;SDS011;62555;52.678;4.900;2022-10-17T04:19:22;2.13;;;1.58;;
74196;SDS011;62555;52.678;4.900;2022-10-17T04:21:47;2.85;;;2.13;;
74196;SDS011;62555;52.678;4.900;2022-10-17T04:24:13;2.88;;;2.13;;
74196;SDS011;62555;52.678;4.900;2022-10-17T04:26:38;2.60;;;2.38;;
74196;SDS011;62555;52.678;4.900;2022-10-17T04:29:03;2.83;;;2.03;;
74196;SDS011;62555;52.678;4.900;2022-10-17T04:31:29;2.25;;;2.05;;
74196;SDS011;62555;52.678;4.900;2022-10-17T04:33:54;2.35;;;1.85;;
74196;SDS011;62555;52.678;4.900;2022-10-17T04:36:19;2.55;;;1.90;;
74196;SDS011;62555;52.678;4.900;2022-10-17T04:38:46;3.58;;;2.80;;
74196;SDS011;62555;52.678;4.900;2022-10-17T04:41:13;2.42;;;2.03;;
74196;SDS011;62555;52.678;4.900;2022-10-17T04:43:40;2.95;;;2.60;;
74196;SDS011;62555;52.678;4.900;2022-10-17T04:46:06;2.63;;;2.20;;
74196;SDS011;62555;52.678;4.900;2022-10-17T04:48:33;2.80;;;2.60;;
74196;SDS011;62555;52.678;4.900;2022-10-17T04:51:06;3.08;;;2.10;;
74196;SDS011;62555;52.678;4.900;2022-10-17T04:53:34;3.50;;;2.72;;
74196;SDS011;62555;52.678;4.900;2022-10-17T04:58:27;3.20;;;2.50;;
74196;SDS011;62555;52.678;4.900;2022-10-17T05:00:53;3.70;;;2.55;;
74196;SDS011;62555;52.678;4.900;2022-10-17T05:03:19;2.53;;;2.08;;
74196;SDS011;62555;52.678;4.900;2022-10-17T05:05:44;3.33;;;2.17;;
74196;SDS011;62555;52.678;4.900;2022-10-17T05:08:10;2.50;;;2.25;;
74196;SDS011;62555;52.678;4.900;2022-10-17T05:10:36;2.53;;;2.33;;
74196;SDS011;62555;52.678;4.900;2022-10-17T05:13:02;2.53;;;2.30;;
74196;SDS011;62555;52.678;4.900;2022-10-17T05:15:27;3.65;;;3.15;;
74196;SDS011;62555;52.678;4.900;2022-10-17T05:17:53;3.08;;;2.78;;
74196;SDS011;62555;52.678;4.900;2022-10-17T05:20:20;3.47;;;3.00;;
74196;SDS011;62555;52.678;4.900;2022-10-17T05:22:45;3.65;;;3.35;;
74196;SDS011;62555;52.678;4.900;2022-10-17T05:25:10;2.58;;;2.38;;
74196;SDS011;62555;52.678;4.900;2022-10-17T05:27:36;2.97;;;2.67;;
74196;SDS011;62555;52.678;4.900;2022-10-17T05:30:02;2.85;;;2.65;;
74196;SDS011;62555;52.678;4.900;2022-10-17T05:32:27;2.78;;;2.38;;
74196;SDS011;62555;52.678;4.900;2022-10-17T05:34:53;3.90;;;2.28;;
74196;SDS011;62555;52.678;4.900;2022-10-17T05:37:18;3.50;;;2.55;;
74196;SDS011;62555;52.678;4.900;2022-10-17T05:39:44;3.47;;;2.63;;
74196;SDS011;62555;52.678;4.900;2022-10-17T05:42:09;3.95;;;2.75;;
74196;SDS011;62555;52.678;4.900;2022-10-17T05:44:35;2.88;;;2.58;;
74196;SDS011;62555;52.678;4.900;2022-10-17T05:47:00;3.67;;;2.67;;
74196;SDS011;62555;52.678;4.900;2022-10-17T05:49:25;3.13;;;2.65;;
74196;SDS011;62555;52.678;4.900;2022-10-17T05:51:51;3.25;;;2.95;;
74196;SDS011;62555;52.678;4.900;2022-10-17T05:54:16;3.30;;;3.00;;
74196;SDS011;62555;52.678;4.900;2022-10-17T05:56:41;3.08;;;2.58;;
74196;SDS011;62555;52.678;4.900;2022-10-17T05:59:07;3.67;;;2.72;;
74196;SDS011;62555;52.678;4.900;2022-10-17T06:01:32;3.67;;;3.03;;
74196;SDS011;62555;52.678;4.900;2022-10-17T06:03:57;3.30;;;2.95;;
74196;SDS011;62555;52.678;4.900;2022-10-17T06:06:23;3.80;;;3.25;;
74196;SDS011;62555;52.678;4.900;2022-10-17T06:08:48;4.05;;;3.65;;
74196;SDS011;62555;52.678;4.900;2022-10-17T06:11:13;3.20;;;2.90;;
74196;SDS011;62555;52.678;4.900;2022-10-17T06:13:39;4.20;;;3.35;;
74196;SDS011;62555;52.678;4.900;2022-10-17T06:16:04;3.95;;;3.30;;
74196;SDS011;62555;52.678;4.900;2022-10-17T06:18:30;4.15;;;3.08;;
74196;SDS011;62555;52.678;4.900;2022-10-17T06:21:02;4.47;;;3.20;;
74196;SDS011;62555;52.678;4.900;2022-10-17T06:23:28;3.58;;;3.00;;
74196;SDS011;62555;52.678;4.900;2022-10-17T06:25:56;4.22;;;3.80;;
74196;SDS011;62555;52.678;4.900;2022-10-17T06:28:25;3.88;;;3.15;;
74196;SDS011;62555;52.678;4.900;2022-10-17T06:30:50;4.10;;;3.60;;
74196;SDS011;62555;52.678;4.900;2022-10-17T06:33:16;4.28;;;3.42;;
74196;SDS011;62555;52.678;4.900;2022-10-17T06:35:41;3.70;;;3.40;;
74196;SDS011;62555;52.678;4.900;2022-10-17T06:38:07;4.35;;;3.70;;
74196;SDS011;62555;52.678;4.900;2022-10-17T06:40:32;4.90;;;3.22;;
74196;SDS011;62555;52.678;4.900;2022-10-17T06:42:58;4.80;;;3.40;;
74196;SDS011;62555;52.678;4.900;2022-10-17T06:45:23;4.90;;;3.88;;
74196;SDS011;62555;52.678;4.900;2022-10-17T06:47:48;4.75;;;4.35;;
74196;SDS011;62555;52.678;4.900;2022-10-17T06:50:15;5.03;;;3.63;;
74196;SDS011;62555;52.678;4.900;2022-10-17T06:52:41;4.47;;;4.07;;
74196;SDS011;62555;52.678;4.900;2022-10-17T06:55:06;4.32;;;3.75;;
74196;SDS011;62555;52.678;4.900;2022-10-17T06:57:32;4.10;;;3.20;;
74196;SDS011;62555;52.678;4.900;2022-10-17T06:59:57;4.20;;;3.70;;
74196;SDS011;62555;52.678;4.900;2022-10-17T07:02:23;3.95;;;3.55;;
74196;SDS011;62555;52.678;4.900;2022-10-17T07:04:49;3.80;;;3.40;;
74196;SDS011;62555;52.678;4.900;2022-10-17T07:07:14;5.20;;;3.72;;
74196;SDS011;62555;52.678;4.900;2022-10-17T07:09:39;3.90;;;3.50;;
74196;SDS011;62555;52.678;4.900;2022-10-17T07:12:05;4.75;;;3.90;;
74196;SDS011;62555;52.678;4.900;2022-10-17T07:14:32;4.35;;;3.95;;
74196;SDS011;62555;52.678;4.900;2022-10-17T07:16:58;11.90;;;8.27;;
74196;SDS011;62555;52.678;4.900;2022-10-17T07:19:24;331.88;;;281.65;;
74196;SDS011;62555;52.678;4.900;2022-10-17T07:21:50;632.40;;;563.63;;
74196;SDS011;62555;52.678;4.900;2022-10-17T07:24:16;765.20;;;659.47;;
74196;SDS011;62555;52.678;4.900;2022-10-17T07:26:41;856.78;;;703.63;;
74196;SDS011;62555;52.678;4.900;2022-10-17T07:29:06;928.55;;;744.80;;
74196;SDS011;62555;52.678;4.900;2022-10-17T07:31:32;994.08;;;765.25;;
74196;SDS011;62555;52.678;4.900;2022-10-17T07:33:58;890.63;;;705.80;;
74196;SDS011;62555;52.678;4.900;2022-10-17T07:36:24;837.28;;;662.30;;
74196;SDS011;62555;52.678;4.900;2022-10-17T07:38:49;769.47;;;601.55;;
74196;SDS011;62555;52.678;4.900;2022-10-17T07:41:15;681.15;;;523.97;;
74196;SDS011;62555;52.678;4.900;2022-10-17T07:43:40;607.10;;;459.58;;
74196;SDS011;62555;52.678;4.900;2022-10-17T07:46:07;554.65;;;396.27;;
74196;SDS011;62555;52.678;4.900;2022-10-17T07:48:33;482.48;;;332.13;;
74196;SDS011;62555;52.678;4.900;2022-10-17T07:51:02;404.55;;;260.30;;
74196;SDS011;62555;52.678;4.900;2022-10-17T07:53:28;324.65;;;198.95;;
74196;SDS011;62555;52.678;4.900;2022-10-17T07:55:53;266.02;;;155.18;;
74196;SDS011;62555;52.678;4.900;2022-10-17T07:58:19;188.73;;;104.93;;
74196;SDS011;62555;52.678;4.900;2022-10-17T08:00:44;121.18;;;64.60;;
74196;SDS011;62555;52.678;4.900;2022-10-17T08:03:12;85.78;;;42.85;;
74196;SDS011;62555;52.678;4.900;2022-10-17T08:05:37;54.38;;;27.33;;
74196;SDS011;62555;52.678;4.900;2022-10-17T08:08:03;37.53;;;19.50;;
74196;SDS011;62555;52.678;4.900;2022-10-17T08:10:28;30.17;;;16.33;;
74196;SDS011;62555;52.678;4.900;2022-10-17T08:12:54;21.35;;;11.43;;
74196;SDS011;62555;52.678;4.900;2022-10-17T08:15:21;39.50;;;22.10;;
74196;SDS011;62555;52.678;4.900;2022-10-17T08:17:47;397.92;;;317.65;;
74196;SDS011;62555;52.678;4.900;2022-10-17T08:20:13;641.67;;;566.60;;
74196;SDS011;62555;52.678;4.900;2022-10-17T08:22:38;583.95;;;508.23;;
74196;SDS011;62555;52.678;4.900;2022-10-17T08:25:03;497.10;;;388.20;;
74196;SDS011;62555;52.678;4.900;2022-10-17T08:27:29;396.67;;;281.73;;
74196;SDS011;62555;52.678;4.900;2022-10-17T08:29:56;322.95;;;218.57;;
74196;SDS011;62555;52.678;4.900;2022-10-17T08:32:23;247.32;;;156.02;;
74196;SDS011;62555;52.678;4.900;2022-10-17T08:34:50;165.57;;;98.35;;
74196;SDS011;62555;52.678;4.900;2022-10-17T08:37:16;106.93;;;57.75;;
74196;SDS011;62555;52.678;4.900;2022-10-17T08:39:42;72.47;;;36.40;;
74196;SDS011;62555;52.678;4.900;2022-10-17T08:42:18;39.35;;;20.58;;
74196;SDS011;62555;52.678;4.900;2022-10-17T08:44:55;21.85;;;10.73;;
74196;SDS011;62555;52.678;4.900;2022-10-17T08:47:40;13.02;;;9.00;;
74196;SDS011;62555;52.678;4.900;2022-10-17T08:50:09;8.90;;;7.43;;
74196;SDS011;62555;52.678;4.900;2022-10-17T08:55:27;8.50;;;7.18;;
74196;SDS011;62555;52.678;4.900;2022-10-17T08:57:57;8.02;;;5.40;;
74196;SDS011;62555;52.678;4.900;2022-10-17T09:00:22;6.75;;;5.57;;
74196;SDS011;62555;52.678;4.900;2022-10-17T09:05:26;7.90;;;5.93;;
74196;SDS011;62555;52.678;4.900;2022-10-17T09:07:55;6.50;;;5.15;;
74196;SDS011;62555;52.678;4.900;2022-10-17T09:13:13;6.97;;;5.65;;
74196;SDS011;62555;52.678;4.900;2022-10-17T09:18:42;6.93;;;5.47;;
74196;SDS011;62555;52.678;4.900;2022-10-17T09:21:30;7.10;;;5.63;;
74196;SDS011;62555;52.678;4.900;2022-10-17T09:24:07;6.50;;;5.22;;
74196;SDS011;62555;52.678;4.900;2022-10-17T09:26:37;5.80;;;5.13;;
74196;SDS011;62555;52.678;4.900;2022-10-17T09:29:09;6.22;;;5.38;;
74196;SDS011;62555;52.678;4.900;2022-10-17T09:31:39;5.20;;;4.70;;
74196;SDS011;62555;52.678;4.900;2022-10-17T09:34:08;6.35;;;5.35;;
74196;SDS011;62555;52.678;4.900;2022-10-17T09:36:35;6.68;;;5.40;;
74196;SDS011;62555;52.678;4.900;2022-10-17T09:41:43;6.43;;;5.30;;
74196;SDS011;62555;52.678;4.900;2022-10-17T09:44:19;5.75;;;5.18;;
74196;SDS011;62555;52.678;4.900;2022-10-17T09:49:35;6.32;;;4.75;;
74196;SDS011;62555;52.678;4.900;2022-10-17T09:52:03;6.35;;;5.18;;
74196;SDS011;62555;52.678;4.900;2022-10-17T09:54:46;24.55;;;18.20;;
74196;SDS011;62555;52.678;4.900;2022-10-17T09:57:14;83.57;;;60.47;;
74196;SDS011;62555;52.678;4.900;2022-10-17T10:04:54;563.22;;;457.58;;
74196;SDS011;62555;52.678;4.900;2022-10-17T10:07:22;557.92;;;444.45;;
74196;SDS011;62555;52.678;4.900;2022-10-17T10:09:48;487.92;;;371.17;;
74196;SDS011;62555;52.678;4.900;2022-10-17T10:12:35;447.55;;;320.95;;
74196;SDS011;62555;52.678;4.900;2022-10-17T10:15:01;401.55;;;274.05;;
74196;SDS011;62555;52.678;4.900;2022-10-17T10:18:02;341.90;;;224.05;;
74196;SDS011;62555;52.678;4.900;2022-10-17T10:23:04;466.95;;;348.63;;
74196;SDS011;62555;52.678;4.900;2022-10-17T10:25:30;513.22;;;380.27;;
74196;SDS011;62555;52.678;4.900;2022-10-17T10:27:56;587.42;;;459.70;;
74196;SDS011;62555;52.678;4.900;2022-10-17T10:30:24;572.90;;;446.20;;
74196;SDS011;62555;52.678;4.900;2022-10-17T10:32:50;616.42;;;472.52;;
74196;SDS011;62555;52.678;4.900;2022-10-17T10:35:30;802.67;;;619.67;;
74196;SDS011;62555;52.678;4.900;2022-10-17T10:37:57;943.47;;;708.28;;
74196;SDS011;62555;52.678;4.900;2022-10-17T10:40:30;1062.60;;;756.22;;
74196;SDS011;62555;52.678;4.900;2022-10-17T10:42:59;1058.95;;;756.63;;
74196;SDS011;62555;52.678;4.900;2022-10-17T10:45:26;1095.30;;;759.45;;
74196;SDS011;62555;52.678;4.900;2022-10-17T10:47:57;1157.68;;;792.95;;
74196;SDS011;62555;52.678;4.900;2022-10-17T10:50:30;1224.88;;;802.85;;
74196;SDS011;62555;52.678;4.900;2022-10-17T10:56:24;1457.63;;;891.45;;
74196;SDS011;62555;52.678;4.900;2022-10-17T11:03:53;1477.07;;;862.20;;
74196;SDS011;62555;52.678;4.900;2022-10-17T11:06:26;1496.15;;;863.58;;
74196;SDS011;62555;52.678;4.900;2022-10-17T11:11:27;1591.32;;;906.10;;
74196;SDS011;62555;52.678;4.900;2022-10-17T11:21:46;1502.70;;;862.70;;
74196;SDS011;62555;52.678;4.900;2022-10-17T11:24:23;1590.97;;;871.83;;
74196;SDS011;62555;52.678;4.900;2022-10-17T11:26:53;1486.75;;;827.85;;
74196;SDS011;62555;52.678;4.900;2022-10-17T11:29:20;1339.43;;;786.97;;
74196;SDS011;62555;52.678;4.900;2022-10-17T11:31:49;1336.32;;;792.20;;
74196;SDS011;62555;52.678;4.900;2022-10-17T11:34:21;1472.53;;;842.72;;
74196;SDS011;62555;52.678;4.900;2022-10-17T11:36:50;1435.05;;;831.03;;
74196;SDS011;62555;52.678;4.900;2022-10-17T11:39:40;1592.72;;;890.22;;
74196;SDS011;62555;52.678;4.900;2022-10-17T11:42:14;1591.30;;;903.35;;
74196;SDS011;62555;52.678;4.900;2022-10-17T11:44:43;1597.65;;;908.90;;
74196;SDS011;62555;52.678;4.900;2022-10-17T11:50:01;1592.93;;;866.47;;
74196;SDS011;62555;52.678;4.900;2022-10-17T11:52:41;1583.90;;;848.17;;
74196;SDS011;62555;52.678;4.900;2022-10-17T11:55:15;1576.82;;;858.90;;
74196;SDS011;62555;52.678;4.900;2022-10-17T12:11:09;1568.10;;;828.17;;
74196;SDS011;62555;52.678;4.900;2022-10-17T12:19:10;1343.78;;;752.95;;
74196;SDS011;62555;52.678;4.900;2022-10-17T12:21:55;1220.88;;;698.15;;
74196;SDS011;62555;52.678;4.900;2022-10-17T12:30:13;896.00;;;545.65;;
74196;SDS011;62555;52.678;4.900;2022-10-17T12:33:03;800.35;;;482.33;;
74196;SDS011;62555;52.678;4.900;2022-10-17T12:35:31;713.05;;;412.00;;
74196;SDS011;62555;52.678;4.900;2022-10-17T12:38:20;604.35;;;346.77;;
74196;SDS011;62555;52.678;4.900;2022-10-17T12:40:51;544.42;;;315.27;;
74196;SDS011;62555;52.678;4.900;2022-10-17T12:45:52;406.95;;;195.13;;
74196;SDS011;62555;52.678;4.900;2022-10-17T12:56:34;149.98;;;67.10;;
74196;SDS011;62555;52.678;4.900;2022-10-17T12:59:05;103.65;;;46.67;;
74196;SDS011;62555;52.678;4.900;2022-10-17T13:01:42;156.57;;;90.53;;
74196;SDS011;62555;52.678;4.900;2022-10-17T13:04:09;188.80;;;118.65;;
74196;SDS011;62555;52.678;4.900;2022-10-17T13:06:35;120.97;;;62.72;;
74196;SDS011;62555;52.678;4.900;2022-10-17T13:09:05;267.80;;;179.50;;
74196;SDS011;62555;52.678;4.900;2022-10-17T13:11:34;350.58;;;258.65;;
74196;SDS011;62555;52.678;4.900;2022-10-17T13:14:01;523.58;;;405.10;;
74196;SDS011;62555;52.678;4.900;2022-10-17T13:16:32;683.80;;;559.55;;
74196;SDS011;62555;52.678;4.900;2022-10-17T13:19:00;592.28;;;474.73;;
74196;SDS011;62555;52.678;4.900;2022-10-17T13:21:27;738.05;;;593.35;;
74196;SDS011;62555;52.678;4.900;2022-10-17T13:23:53;842.00;;;650.78;;
74196;SDS011;62555;52.678;4.900;2022-10-17T13:26:20;883.25;;;673.10;;
74196;SDS011;62555;52.678;4.900;2022-10-17T13:29:00;912.40;;;674.35;;
74196;SDS011;62555;52.678;4.900;2022-10-17T13:31:34;843.20;;;627.25;;
74196;SDS011;62555;52.678;4.900;2022-10-17T13:34:02;781.78;;;579.72;;
74196;SDS011;62555;52.678;4.900;2022-10-17T13:36:29;718.65;;;513.28;;
74196;SDS011;62555;52.678;4.900;2022-10-17T13:38:58;646.53;;;465.13;;
74196;SDS011;62555;52.678;4.900;2022-10-17T13:41:28;592.85;;;408.50;;
74196;SDS011;62555;52.678;4.900;2022-10-17T13:43:54;572.13;;;395.00;;
74196;SDS011;62555;52.678;4.900;2022-10-17T13:46:26;610.22;;;444.90;;
74196;SDS011;62555;52.678;4.900;2022-10-17T13:48:54;616.25;;;440.98;;
74196;SDS011;62555;52.678;4.900;2022-10-17T13:51:21;691.10;;;502.20;;
74196;SDS011;62555;52.678;4.900;2022-10-17T13:53:47;777.90;;;583.50;;
74196;SDS011;62555;52.678;4.900;2022-10-17T13:56:17;783.08;;;580.58;;
74196;SDS011;62555;52.678;4.900;2022-10-17T14:01:12;915.45;;;652.50;;
74196;SDS011;62555;52.678;4.900;2022-10-17T14:03:39;958.67;;;676.65;;
74196;SDS011;62555;52.678;4.900;2022-10-17T14:06:13;952.25;;;671.40;;
74196;SDS011;62555;52.678;4.900;2022-10-17T14:08:45;922.50;;;648.03;;
74196;SDS011;62555;52.678;4.900;2022-10-17T14:11:54;931.10;;;644.20;;
74196;SDS011;62555;52.678;4.900;2022-10-17T14:14:06;1001.30;;;683.88;;
74196;SDS011;62555;52.678;4.900;2022-10-17T14:16:47;1069.82;;;717.92;;
74196;SDS011;62555;52.678;4.900;2022-10-17T14:24:42;1347.95;;;814.15;;
74196;SDS011;62555;52.678;4.900;2022-10-17T14:32:25;1503.97;;;844.78;;
74196;SDS011;62555;52.678;4.900;2022-10-17T14:34:53;1463.03;;;828.05;;
74196;SDS011;62555;52.678;4.900;2022-10-17T14:39:53;1218.30;;;745.90;;
74196;SDS011;62555;52.678;4.900;2022-10-17T14:42:21;1113.70;;;711.80;;
74196;SDS011;62555;52.678;4.900;2022-10-17T14:44:48;1035.72;;;667.25;;
74196;SDS011;62555;52.678;4.900;2022-10-17T14:47:16;923.40;;;613.40;;
74196;SDS011;62555;52.678;4.900;2022-10-17T14:49:43;821.25;;;546.58;;
74196;SDS011;62555;52.678;4.900;2022-10-17T14:54:39;846.63;;;587.43;;
74196;SDS011;62555;52.678;4.900;2022-10-17T14:57:08;894.70;;;625.67;;
74196;SDS011;62555;52.678;4.900;2022-10-17T14:59:42;885.15;;;627.83;;
74196;SDS011;62555;52.678;4.900;2022-10-17T15:02:08;899.88;;;642.33;;
74196;SDS011;62555;52.678;4.900;2022-10-17T15:04:34;976.65;;;699.35;;
74196;SDS011;62555;52.678;4.900;2022-10-17T15:06:59;1038.15;;;729.38;;
74196;SDS011;62555;52.678;4.900;2022-10-17T15:09:25;1066.70;;;744.83;;
74196;SDS011;62555;52.678;4.900;2022-10-17T15:11:53;1013.10;;;730.53;;
74196;SDS011;62555;52.678;4.900;2022-10-17T15:14:19;857.50;;;633.03;;
74196;SDS011;62555;52.678;4.900;2022-10-17T15:16:45;709.17;;;515.88;;
74196;SDS011;62555;52.678;4.900;2022-10-17T15:19:11;599.40;;;419.00;;
74196;SDS011;62555;52.678;4.900;2022-10-17T15:21:37;633.67;;;506.42;;
74196;SDS011;62555;52.678;4.900;2022-10-17T15:24:03;867.47;;;701.05;;
74196;SDS011;62555;52.678;4.900;2022-10-17T15:26:29;930.72;;;743.80;;
74196;SDS011;62555;52.678;4.900;2022-10-17T15:28:56;914.80;;;728.20;;
74196;SDS011;62555;52.678;4.900;2022-10-17T15:31:22;1005.08;;;777.95;;
74196;SDS011;62555;52.678;4.900;2022-10-17T15:33:49;1067.40;;;814.58;;
74196;SDS011;62555;52.678;4.900;2022-10-17T15:36:21;1146.50;;;838.55;;
74196;SDS011;62555;52.678;4.900;2022-10-17T15:38:53;1214.35;;;864.67;;
74196;SDS011;62555;52.678;4.900;2022-10-17T15:41:21;1398.85;;;920.50;;
74196;SDS011;62555;52.678;4.900;2022-10-17T15:43:47;1483.60;;;943.88;;
74196;SDS011;62555;52.678;4.900;2022-10-17T15:46:14;1550.18;;;963.75;;
74196;SDS011;62555;52.678;4.900;2022-10-17T15:48:42;1598.35;;;995.25;;
74196;SDS011;62555;52.678;4.900;2022-10-17T15:51:07;1597.20;;;979.67;;
74196;SDS011;62555;52.678;4.900;2022-10-17T15:53:33;1512.10;;;933.65;;
74196;SDS011;62555;52.678;4.900;2022-10-17T15:55:59;1336.80;;;874.67;;
74196;SDS011;62555;52.678;4.900;2022-10-17T15:58:25;1162.80;;;801.90;;
74196;SDS011;62555;52.678;4.900;2022-10-17T16:00:54;984.75;;;712.10;;
74196;SDS011;62555;52.678;4.900;2022-10-17T16:03:20;814.25;;;612.10;;
74196;SDS011;62555;52.678;4.900;2022-10-17T16:05:45;648.45;;;484.38;;
74196;SDS011;62555;52.678;4.900;2022-10-17T16:08:10;497.75;;;349.42;;
74196;SDS011;62555;52.678;4.900;2022-10-17T16:10:36;368.45;;;238.05;;
74196;SDS011;62555;52.678;4.900;2022-10-17T16:13:03;211.30;;;124.97;;
74196;SDS011;62555;52.678;4.900;2022-10-17T16:15:28;93.28;;;50.42;;
74196;SDS011;62555;52.678;4.900;2022-10-17T16:17:54;28.67;;;15.60;;
74196;SDS011;62555;52.678;4.900;2022-10-17T16:20:21;11.70;;;6.50;;
74196;SDS011;62555;52.678;4.900;2022-10-17T16:25:20;7.27;;;2.90;;
74196;SDS011;62555;52.678;4.900;2022-10-17T16:27:48;4.13;;;2.90;;
74196;SDS011;62555;52.678;4.900;2022-10-17T16:30:15;4.70;;;2.70;;
74196;SDS011;62555;52.678;4.900;2022-10-17T16:32:41;3.67;;;2.70;;
74196;SDS011;62555;52.678;4.900;2022-10-17T16:35:06;5.50;;;2.95;;
74196;SDS011;62555;52.678;4.900;2022-10-17T16:37:32;3.65;;;2.58;;
74196;SDS011;62555;52.678;4.900;2022-10-17T16:39:57;4.68;;;2.88;;
74196;SDS011;62555;52.678;4.900;2022-10-17T16:42:23;5.50;;;2.83;;
74196;SDS011;62555;52.678;4.900;2022-10-17T16:44:48;3.35;;;2.63;;